createdAt,value
2019-06-08T00:01:46.618Z,15.00
2019-06-08T00:04:14.987Z,15.00
2019-06-08T00:06:43.235Z,15.00
2019-06-08T00:09:12.937Z,15.00
2019-06-08T00:11:41.600Z,15.00
2019-06-08T00:14:10.745Z,15.00
2019-06-08T00:16:38.995Z,15.00
2019-06-08T00:19:07.438Z,15.00
2019-06-08T00:21:35.693Z,15.00
2019-06-08T00:24:03.982Z,15.00
2019-06-08T00:26:32.223Z,15.00
2019-06-08T00:29:00.474Z,15.10
2019-06-08T00:31:30.848Z,15.00
2019-06-08T00:33:59.072Z,14.90
2019-06-08T00:36:27.398Z,15.00
2019-06-08T00:38:55.683Z,14.90
2019-06-08T00:41:25.286Z,14.80
2019-06-08T00:43:53.815Z,14.80
2019-06-08T00:46:23.483Z,14.80
2019-06-08T00:48:53.139Z,14.80
2019-06-08T00:51:21.457Z,14.70
2019-06-08T00:53:49.719Z,14.70
2019-06-08T00:56:19.444Z,14.80
2019-06-08T00:58:47.779Z,14.70
2019-06-08T01:01:16.060Z,14.60
2019-06-08T01:03:44.469Z,14.60
2019-06-08T01:06:12.751Z,14.60
2019-06-08T01:08:40.982Z,14.60
2019-06-08T01:11:09.254Z,14.50
2019-06-08T01:13:37.530Z,14.60
2019-06-08T01:16:05.778Z,14.60
2019-06-08T01:18:34.191Z,14.50
2019-06-08T01:21:02.449Z,14.50
2019-06-08T01:23:30.726Z,14.50
2019-06-08T01:25:58.974Z,14.50
2019-06-08T01:28:28.237Z,14.50
2019-06-08T01:30:56.639Z,14.50
2019-06-08T01:33:26.630Z,14.50
2019-06-08T01:35:55.143Z,14.50
2019-06-08T01:38:23.393Z,14.40
2019-06-08T01:40:53.696Z,14.40
2019-06-08T01:43:21.955Z,14.50
2019-06-08T01:45:50.206Z,14.50
2019-06-08T01:48:20.387Z,14.50
2019-06-08T01:50:48.640Z,14.50
2019-06-08T01:53:16.885Z,14.40
2019-06-08T01:55:45.204Z,14.40
2019-06-08T01:58:13.797Z,14.40
2019-06-08T02:00:42.050Z,14.40
2019-06-08T02:03:10.390Z,14.30
2019-06-08T02:05:38.641Z,14.30
2019-06-08T02:08:07.000Z,14.30
2019-06-08T02:10:35.221Z,14.30
2019-06-08T02:13:03.496Z,14.30
2019-06-08T02:15:33.757Z,14.30
2019-06-08T02:18:02.045Z,14.30
2019-06-08T02:20:30.825Z,14.30
2019-06-08T02:22:59.141Z,14.30
2019-06-08T02:25:29.242Z,14.30
2019-06-08T02:27:58.000Z,14.20
2019-06-08T02:30:30.528Z,14.20
2019-06-08T02:32:58.654Z,14.10
2019-06-08T02:35:27.963Z,14.10
2019-06-08T02:37:56.504Z,14.20
2019-06-08T02:40:24.882Z,14.10
2019-06-08T02:42:53.092Z,14.10
2019-06-08T02:45:21.449Z,14.10
2019-06-08T02:47:49.687Z,14.10
2019-06-08T02:50:21.360Z,14.10
2019-06-08T02:52:51.081Z,14.10
2019-06-08T02:55:21.136Z,14.10
2019-06-08T02:57:50.270Z,14.10
2019-06-08T03:00:18.638Z,14.00
2019-06-08T03:02:47.623Z,14.00
2019-06-08T03:05:17.319Z,14.00
2019-06-08T03:07:47.415Z,14.10
2019-06-08T03:10:16.457Z,14.10
2019-06-08T03:12:45.631Z,14.10
2019-06-08T03:15:17.454Z,14.10
2019-06-08T03:17:45.759Z,14.10
2019-06-08T03:20:14.163Z,14.10
2019-06-08T03:22:44.055Z,14.10
2019-06-08T03:25:12.557Z,14.10
2019-06-08T03:27:42.938Z,14.00
2019-06-08T03:30:17.525Z,14.00
2019-06-08T03:32:50.869Z,14.00
2019-06-08T03:35:11.150Z,14.00
2019-06-08T03:37:40.085Z,14.00
2019-06-08T03:40:09.477Z,13.90
2019-06-08T03:42:37.743Z,14.00
2019-06-08T03:45:06.101Z,14.00
2019-06-08T03:47:34.608Z,14.00
2019-06-08T03:50:04.347Z,14.00
2019-06-08T03:52:32.583Z,14.00
2019-06-08T03:55:00.994Z,14.00
2019-06-08T03:57:29.227Z,14.00
2019-06-08T03:59:57.473Z,14.00
2019-06-08T04:02:25.822Z,14.00
2019-06-08T04:04:54.052Z,14.00
2019-06-08T04:07:22.325Z,14.00
2019-06-08T04:09:50.561Z,14.00
2019-06-08T04:12:18.897Z,14.20
2019-06-08T04:14:47.117Z,15.20
2019-06-08T04:17:15.377Z,16.10
2019-06-08T04:20:02.787Z,17.20
2019-06-08T04:22:13.766Z,17.50
2019-06-08T04:24:42.488Z,18.10
2019-06-08T04:27:12.050Z,19.20
2019-06-08T04:29:41.776Z,19.60
2019-06-08T04:32:10.157Z,20.30
2019-06-08T04:34:41.022Z,19.90
2019-06-08T04:37:09.617Z,19.50
2019-06-08T04:39:38.423Z,20.20
2019-06-08T04:42:07.089Z,21.40
2019-06-08T04:44:35.691Z,21.60
2019-06-08T04:47:03.911Z,21.50
2019-06-08T04:49:32.119Z,22.10
2019-06-08T04:52:00.442Z,21.80
2019-06-08T04:54:29.011Z,20.20
2019-06-08T04:56:57.268Z,18.70
2019-06-08T04:59:25.608Z,18.90
2019-06-08T05:01:53.912Z,19.40
2019-06-08T05:04:24.606Z,20.10
2019-06-08T05:06:52.826Z,21.10
2019-06-08T05:09:21.143Z,20.80
2019-06-08T05:11:50.052Z,19.00
2019-06-08T05:14:18.447Z,17.80
2019-06-08T05:16:47.391Z,17.20
2019-06-08T05:19:15.942Z,16.70
2019-06-08T05:21:45.450Z,16.30
2019-06-08T05:24:14.036Z,15.90
2019-06-08T05:26:43.572Z,15.70
2019-06-08T05:29:11.911Z,15.60
2019-06-08T05:31:41.523Z,15.50
2019-06-08T05:34:09.996Z,15.30
2019-06-08T05:36:39.348Z,15.10
2019-06-08T05:39:07.709Z,14.90
2019-06-08T05:41:36.108Z,14.90
2019-06-08T05:44:04.544Z,14.90
2019-06-08T05:46:32.836Z,15.00
2019-06-08T05:49:01.080Z,14.90
2019-06-08T05:51:29.346Z,14.80
2019-06-08T05:53:57.710Z,14.70
2019-06-08T05:56:26.086Z,14.70
2019-06-08T05:58:54.336Z,14.70
2019-06-08T06:01:22.651Z,14.80
2019-06-08T06:03:51.924Z,14.80
2019-06-08T06:06:20.680Z,14.80
2019-06-08T06:08:49.000Z,14.90
2019-06-08T06:11:17.301Z,14.90
2019-06-08T06:13:47.406Z,15.00
2019-06-08T06:16:15.978Z,15.10
2019-06-08T06:18:44.993Z,15.00
2019-06-08T06:21:13.430Z,15.10
2019-06-08T06:23:41.686Z,15.00
2019-06-08T06:26:10.277Z,15.10
2019-06-08T06:28:38.559Z,15.20
2019-06-08T06:31:06.864Z,15.20
2019-06-08T06:33:36.310Z,14.80
2019-06-08T06:36:04.676Z,15.00
2019-06-08T06:38:33.793Z,15.00
2019-06-08T06:41:02.102Z,15.20
2019-06-08T06:43:30.353Z,15.10
2019-06-08T06:45:58.692Z,15.20
2019-06-08T06:48:26.955Z,15.20
2019-06-08T06:50:55.525Z,15.20
2019-06-08T06:53:23.782Z,15.40
2019-06-08T06:55:53.370Z,15.50
2019-06-08T06:58:21.928Z,15.70
2019-06-08T07:00:51.542Z,15.90
2019-06-08T07:03:20.012Z,16.10
2019-06-08T07:05:48.344Z,15.90
2019-06-08T07:08:16.587Z,15.90
2019-06-08T07:10:44.935Z,15.80
2019-06-08T07:13:13.276Z,15.90
2019-06-08T07:15:42.052Z,15.90
2019-06-08T07:18:10.691Z,15.70
2019-06-08T07:20:39.483Z,15.90
2019-06-08T07:23:08.156Z,16.00
2019-06-08T07:25:36.511Z,16.10
2019-06-08T07:28:04.834Z,15.80
2019-06-08T07:30:33.174Z,15.60
2019-06-08T07:33:01.467Z,15.30
2019-06-08T07:35:29.756Z,15.10
2019-06-08T07:37:59.611Z,15.20
2019-06-08T07:40:28.396Z,15.50
2019-06-08T07:42:56.860Z,15.40
2019-06-08T07:45:25.741Z,15.60
2019-06-08T07:47:54.127Z,15.90
2019-06-08T07:50:22.479Z,16.10
2019-06-08T07:52:51.256Z,16.20
2019-06-08T07:55:20.766Z,16.50
2019-06-08T07:57:50.450Z,16.10
2019-06-08T08:02:45.399Z,16.20
2019-06-08T08:05:15.158Z,16.30
2019-06-08T08:07:44.646Z,16.30
2019-06-08T08:10:13.062Z,16.20
2019-06-08T08:12:42.517Z,16.50
2019-06-08T08:15:10.983Z,16.70
2019-06-08T08:17:39.334Z,16.60
2019-06-08T08:20:07.606Z,16.70
2019-06-08T08:22:38.339Z,16.80
2019-06-08T08:25:08.260Z,16.90
2019-06-08T08:27:38.056Z,16.80
2019-06-08T08:30:08.381Z,16.70
2019-06-08T08:32:38.208Z,16.90
2019-06-08T08:35:08.890Z,16.70
2019-06-08T08:37:38.034Z,16.10
2019-06-08T08:40:07.852Z,16.00
2019-06-08T08:42:38.725Z,15.90
2019-06-08T08:45:08.664Z,16.10
2019-06-08T08:47:38.774Z,16.00
2019-06-08T08:50:07.727Z,16.30
2019-06-08T08:52:39.852Z,16.60
2019-06-08T08:55:08.429Z,16.80
2019-06-08T08:57:41.173Z,16.70
2019-06-08T09:00:08.547Z,16.60
2019-06-08T09:02:37.575Z,16.70
2019-06-08T09:05:08.582Z,16.70
2019-06-08T09:07:38.480Z,16.70
2019-06-08T09:10:10.813Z,16.80
2019-06-08T09:12:37.636Z,16.90
2019-06-08T09:15:08.349Z,17.00
2019-06-08T09:17:38.605Z,17.10
2019-06-08T09:20:08.876Z,17.10
2019-06-08T09:22:51.922Z,17.30
2019-06-08T09:25:08.751Z,17.30
2019-06-08T09:27:38.262Z,17.70
2019-06-08T09:30:08.366Z,18.20
2019-06-08T09:32:38.281Z,18.10
2019-06-08T09:35:09.119Z,18.00
2019-06-08T09:37:37.559Z,18.10
2019-06-08T09:40:06.768Z,18.20
2019-06-08T09:42:35.131Z,17.80
2019-06-08T09:45:05.425Z,17.80
2019-06-08T09:47:33.603Z,18.00
2019-06-08T09:50:04.503Z,18.10
2019-06-08T09:52:32.296Z,18.20
2019-06-08T09:55:03.949Z,18.30
2019-06-08T09:57:30.676Z,18.50
2019-06-08T10:00:01.241Z,18.40
2019-06-08T10:02:29.022Z,18.30
2019-06-08T10:05:00.722Z,18.40
2019-06-08T10:07:31.067Z,18.00
2019-06-08T10:10:00.307Z,17.90
2019-06-08T10:12:29.514Z,17.60
2019-06-08T10:14:58.764Z,17.70
2019-06-08T10:17:27.887Z,17.60
2019-06-08T10:20:00.225Z,17.50
2019-06-08T10:22:28.254Z,17.20
2019-06-08T10:24:58.022Z,17.10
2019-06-08T10:27:28.383Z,17.20
2019-06-08T10:29:59.983Z,17.20
2019-06-08T10:32:28.208Z,17.30
2019-06-08T10:35:00.029Z,17.00
2019-06-08T10:37:28.370Z,17.20
2019-06-08T10:40:00.642Z,17.20
2019-06-08T10:42:26.781Z,17.10
2019-06-08T10:44:55.096Z,17.00
2019-06-08T10:47:23.420Z,17.10
2019-06-08T10:49:51.693Z,17.50
2019-06-08T10:52:20.705Z,17.70
2019-06-08T10:54:49.078Z,18.10
2019-06-08T10:57:22.681Z,18.00
2019-06-08T10:59:50.966Z,18.10
2019-06-08T11:02:19.336Z,18.30
2019-06-08T11:04:48.411Z,18.50
2019-06-08T11:07:16.799Z,18.40
2019-06-08T11:09:45.192Z,18.40
2019-06-08T11:12:15.208Z,18.60
2019-06-08T11:14:43.538Z,17.90
2019-06-08T11:17:11.825Z,17.70
2019-06-08T11:19:40.814Z,17.90
2019-06-08T11:22:14.206Z,17.70
2019-06-08T11:24:39.289Z,18.10
2019-06-08T11:27:11.102Z,18.40
2019-06-08T11:29:38.361Z,18.80
2019-06-08T11:32:10.944Z,19.00
2019-06-08T11:34:37.697Z,19.20
2019-06-08T11:37:07.835Z,19.20
2019-06-08T11:39:38.204Z,19.20
2019-06-08T11:42:09.277Z,19.30
2019-06-08T11:44:38.753Z,19.70
2019-06-08T11:47:10.592Z,19.80
2019-06-08T11:49:37.845Z,19.70
2019-06-08T11:52:06.830Z,19.30
2019-06-08T11:57:08.354Z,19.50
2019-06-08T11:59:37.518Z,19.40
2019-06-08T12:02:09.037Z,19.00
2019-06-08T12:04:38.439Z,19.00
2019-06-08T12:07:09.196Z,19.10
2019-06-08T12:12:04.618Z,19.10
2019-06-08T12:14:33.692Z,19.00
2019-06-08T12:17:05.163Z,19.30
2019-06-08T12:19:32.528Z,19.20
2019-06-08T12:22:01.080Z,19.10
2019-06-08T12:24:41.404Z,19.10
2019-06-08T12:27:09.361Z,19.10
2019-06-08T12:29:29.491Z,19.40
2019-06-08T12:31:58.398Z,19.90
2019-06-08T12:34:28.124Z,20.10
2019-06-08T12:36:58.286Z,20.10
2019-06-08T12:39:28.196Z,20.20
2019-06-08T12:41:58.323Z,19.70
2019-06-08T12:44:29.045Z,19.50
2019-06-08T12:46:58.558Z,19.20
2019-06-08T12:49:26.578Z,18.80
2019-06-08T12:51:55.559Z,18.70
2019-06-08T12:54:24.873Z,18.70
2019-06-08T12:56:53.520Z,18.90
2019-06-08T12:59:23.079Z,19.30
2019-06-08T13:01:51.447Z,19.60
2019-06-08T13:04:23.505Z,19.60
2019-06-08T13:06:49.978Z,19.50
2019-06-08T13:09:20.248Z,19.40
2019-06-08T13:11:50.641Z,19.40
2019-06-08T13:14:19.486Z,19.60
2019-06-08T13:16:49.572Z,19.90
2019-06-08T13:19:18.405Z,20.00
2019-06-08T13:21:48.589Z,19.50
2019-06-08T13:24:17.283Z,19.30
2019-06-08T13:26:45.688Z,19.60
2019-06-08T13:29:13.987Z,19.30
2019-06-08T13:31:42.239Z,19.40
2019-06-08T13:34:12.769Z,19.40
2019-06-08T13:36:42.309Z,19.00
2019-06-08T13:39:11.625Z,19.00
2019-06-08T13:41:40.565Z,19.20
2019-06-08T13:44:08.876Z,19.40
2019-06-08T13:46:37.887Z,19.50
2019-06-08T13:49:08.249Z,19.50
2019-06-08T13:51:38.386Z,19.30
2019-06-08T13:54:08.624Z,18.90
2019-06-08T13:56:38.605Z,18.70
2019-06-08T13:59:07.951Z,18.60
2019-06-08T14:01:37.815Z,18.80
2019-06-08T14:04:08.815Z,19.00
2019-06-08T14:06:36.420Z,19.30
2019-06-08T14:09:05.537Z,19.70
2019-06-08T14:11:33.953Z,19.90
2019-06-08T14:14:02.192Z,19.80
2019-06-08T14:16:30.544Z,20.00
2019-06-08T14:18:58.978Z,20.00
2019-06-08T14:21:36.715Z,19.90
2019-06-08T14:23:58.715Z,19.80
2019-06-08T14:26:27.324Z,19.40
2019-06-08T14:28:55.606Z,19.60
2019-06-08T14:31:25.310Z,19.60
2019-06-08T14:33:53.902Z,19.70
2019-06-08T14:36:23.255Z,19.70
2019-06-08T14:38:52.258Z,19.60
2019-06-08T14:41:21.049Z,19.80
2019-06-08T14:43:50.874Z,20.10
2019-06-08T14:46:21.091Z,20.00
2019-06-08T14:48:49.298Z,20.00
2019-06-08T14:51:18.691Z,20.00
2019-06-08T14:53:48.597Z,19.70
2019-06-08T14:56:19.392Z,19.70
2019-06-08T14:58:48.358Z,19.50
2019-06-08T15:01:19.465Z,19.60
2019-06-08T15:03:48.181Z,19.70
2019-06-08T15:06:17.828Z,19.70
2019-06-08T15:08:50.062Z,19.60
2019-06-08T15:11:17.906Z,19.60
2019-06-08T15:13:48.749Z,19.90
2019-06-08T15:16:18.154Z,19.70
2019-06-08T15:18:46.836Z,19.70
2019-06-08T15:21:20.508Z,19.50
2019-06-08T15:23:47.203Z,19.40
2019-06-08T15:26:24.035Z,19.40
2019-06-08T15:28:45.388Z,19.20
2019-06-08T15:31:13.645Z,19.10
2019-06-08T15:33:41.951Z,19.10
2019-06-08T15:36:10.257Z,19.00
2019-06-08T15:38:38.555Z,19.10
2019-06-08T15:41:07.800Z,19.30
2019-06-08T15:43:37.664Z,19.10
2019-06-08T15:46:08.319Z,19.40
2019-06-08T15:48:38.128Z,19.50
2019-06-08T15:51:07.896Z,19.20
2019-06-08T15:53:37.809Z,19.30
2019-06-08T15:56:08.469Z,19.30
2019-06-08T15:58:40.220Z,19.30
2019-06-08T16:01:06.724Z,19.50
2019-06-08T16:03:35.348Z,19.70
2019-06-08T16:06:03.857Z,19.80
2019-06-08T16:08:32.394Z,19.80
2019-06-08T16:11:00.998Z,19.60
2019-06-08T16:13:30.503Z,19.30
2019-06-08T16:15:59.110Z,19.20
2019-06-08T16:18:27.470Z,19.00
2019-06-08T16:20:55.844Z,18.40
2019-06-08T16:23:25.283Z,17.90
2019-06-08T16:25:54.265Z,17.60
2019-06-08T16:28:22.506Z,17.60
2019-06-08T16:30:50.793Z,17.70
2019-06-08T16:33:19.051Z,17.80
2019-06-08T16:35:47.340Z,17.70
2019-06-08T16:38:15.673Z,17.80
2019-06-08T16:40:43.963Z,18.00
2019-06-08T16:43:12.353Z,18.10
2019-06-08T16:45:40.751Z,18.20
2019-06-08T16:48:09.063Z,18.20
2019-06-08T16:50:38.502Z,18.40
2019-06-08T16:53:07.216Z,18.50
2019-06-08T16:55:36.157Z,18.40
2019-06-08T16:58:04.695Z,18.50
2019-06-08T17:00:37.177Z,18.50
2019-06-08T17:03:03.102Z,18.70
2019-06-08T17:05:31.467Z,18.60
2019-06-08T17:07:59.850Z,18.60
2019-06-08T17:10:28.150Z,18.60
2019-06-08T17:12:56.566Z,18.70
2019-06-08T17:15:24.912Z,18.90
2019-06-08T17:17:53.979Z,19.00
2019-06-08T17:20:22.339Z,19.00
2019-06-08T17:22:50.603Z,18.80
2019-06-08T17:25:18.968Z,18.80
2019-06-08T17:27:47.213Z,18.60
2019-06-08T17:30:15.949Z,18.70
2019-06-08T17:32:44.296Z,18.60
2019-06-08T17:35:12.733Z,18.70
2019-06-08T17:37:41.994Z,18.70
2019-06-08T17:40:10.553Z,18.60
2019-06-08T17:42:39.605Z,18.60
2019-06-08T17:45:08.269Z,18.50
2019-06-08T17:47:36.570Z,18.30
2019-06-08T17:50:05.255Z,18.20
2019-06-08T17:52:34.590Z,18.10
2019-06-08T17:55:03.255Z,18.10
2019-06-08T17:57:42.348Z,18.10
2019-06-08T18:00:01.876Z,18.10
2019-06-08T18:02:31.469Z,18.10
2019-06-08T18:05:00.444Z,18.10
2019-06-08T18:07:28.757Z,17.90
2019-06-08T18:09:57.680Z,17.80
2019-06-08T18:12:27.120Z,17.80
2019-06-08T18:14:57.913Z,17.90
2019-06-08T18:17:27.870Z,17.90
2019-06-08T18:19:57.957Z,17.90
2019-06-08T18:22:27.129Z,17.80
2019-06-08T18:24:58.109Z,17.60
2019-06-08T18:27:27.737Z,17.30
2019-06-08T18:29:58.102Z,17.10
2019-06-08T18:32:27.208Z,17.00
2019-06-08T18:34:57.262Z,16.90
2019-06-08T18:37:28.334Z,17.00
2019-06-08T18:39:57.933Z,17.00
2019-06-08T18:42:26.993Z,17.10
2019-06-08T18:44:55.448Z,17.20
2019-06-08T18:47:23.859Z,17.30
2019-06-08T18:49:52.286Z,17.10
2019-06-08T18:52:20.667Z,17.20
2019-06-08T18:54:49.762Z,17.10
2019-06-08T18:57:18.396Z,17.00
2019-06-08T18:59:51.054Z,17.10
2019-06-08T19:02:17.997Z,17.00
2019-06-08T19:04:48.086Z,16.50
2019-06-08T19:07:17.563Z,16.20
2019-06-08T19:09:48.050Z,16.10
2019-06-08T19:12:16.910Z,16.00
2019-06-08T19:14:47.498Z,15.90
2019-06-08T19:17:17.475Z,15.90
2019-06-08T19:19:48.541Z,15.80
2019-06-08T19:22:18.787Z,15.60
2019-06-08T19:24:50.364Z,15.50
2019-06-08T19:27:18.421Z,15.50
2019-06-08T19:29:49.963Z,15.50
2019-06-08T19:32:17.252Z,15.50
2019-06-08T19:34:52.321Z,15.40
2019-06-08T19:37:17.231Z,15.40
2019-06-08T19:39:47.694Z,15.30
2019-06-08T19:42:17.538Z,15.20
2019-06-08T19:44:57.625Z,15.20
2019-06-08T19:47:17.615Z,15.10
2019-06-08T19:49:47.749Z,15.20
2019-06-08T19:52:18.277Z,15.30
2019-06-08T19:54:52.109Z,15.20
2019-06-08T19:57:17.535Z,15.20
2019-06-08T19:59:46.123Z,15.20
2019-06-08T20:02:14.466Z,15.10
2019-06-08T20:04:46.844Z,15.10
2019-06-08T20:07:17.516Z,15.20
2019-06-08T20:09:47.839Z,15.00
2019-06-08T20:12:18.465Z,15.00
2019-06-08T20:14:48.020Z,15.00
2019-06-08T20:17:17.196Z,15.00
2019-06-08T20:19:48.023Z,15.00
2019-06-08T20:22:18.248Z,15.00
2019-06-08T20:24:51.432Z,14.90
2019-06-08T20:27:17.274Z,14.90
2019-06-08T20:29:47.916Z,14.90
2019-06-08T20:32:18.037Z,14.90
2019-06-08T20:34:49.291Z,14.90
2019-06-08T20:37:17.521Z,14.90
2019-06-08T20:39:59.296Z,14.90
2019-06-08T20:42:17.709Z,14.90
2019-06-08T20:44:46.704Z,14.90
2019-06-08T20:47:17.876Z,14.80
2019-06-08T20:49:48.942Z,14.80
2019-06-08T20:52:17.800Z,14.80
2019-06-08T20:54:48.980Z,14.70
2019-06-08T20:57:17.093Z,14.70
2019-06-08T20:59:45.703Z,14.70
2019-06-08T21:02:14.205Z,14.70
2019-06-08T21:04:44.515Z,14.70
2019-06-08T21:07:12.707Z,14.70
2019-06-08T21:09:41.126Z,14.70
2019-06-08T21:12:09.521Z,14.70
2019-06-08T21:14:38.028Z,14.70
2019-06-08T21:17:07.599Z,14.70
2019-06-08T21:19:36.448Z,14.60
2019-06-08T21:22:04.858Z,14.60
2019-06-08T21:24:33.135Z,14.50
2019-06-08T21:27:01.546Z,14.40
2019-06-08T21:29:47.110Z,14.30
2019-06-08T21:32:02.665Z,14.30
2019-06-08T21:34:31.288Z,14.20
2019-06-08T21:37:00.888Z,14.10
2019-06-08T21:39:29.351Z,14.00
2019-06-08T21:42:02.345Z,13.90
2019-06-08T21:44:27.985Z,13.90
2019-06-08T21:47:00.787Z,13.80
2019-06-08T21:49:27.730Z,13.70
2019-06-08T21:51:59.561Z,13.60
2019-06-08T21:54:27.278Z,13.50
2019-06-08T21:56:58.862Z,13.50
2019-06-08T21:59:25.672Z,13.40
2019-06-08T22:01:55.169Z,13.40
2019-06-08T22:04:24.066Z,13.40
2019-06-08T22:06:52.383Z,13.20
2019-06-08T22:09:20.656Z,13.20
2019-06-08T22:11:50.983Z,13.10
2019-06-08T22:14:19.880Z,13.00
2019-06-08T22:16:48.239Z,13.10
2019-06-08T22:19:18.395Z,13.00
2019-06-08T22:21:48.056Z,13.00
2019-06-08T22:24:17.171Z,13.00
2019-06-08T22:26:46.968Z,12.90
2019-06-08T22:29:15.293Z,12.90
2019-06-08T22:31:43.642Z,12.90
2019-06-08T22:34:11.906Z,12.80
2019-06-08T22:36:40.274Z,12.80
2019-06-08T22:39:08.500Z,12.70
2019-06-08T22:41:37.295Z,12.70
2019-06-08T22:44:08.081Z,12.50
2019-06-08T22:46:37.514Z,12.50
2019-06-08T22:49:08.109Z,12.50
2019-06-08T22:51:38.082Z,12.40
2019-06-08T22:54:07.960Z,12.50
2019-06-08T22:56:37.181Z,12.50
2019-06-08T22:59:06.757Z,12.40
2019-06-08T23:01:38.212Z,12.40
2019-06-08T23:04:06.300Z,12.30
2019-06-08T23:06:38.698Z,12.20
2019-06-08T23:09:08.746Z,12.10
2019-06-08T23:11:37.657Z,12.10
2019-06-08T23:14:12.806Z,12.10
2019-06-08T23:16:36.122Z,12.10
2019-06-08T23:19:05.209Z,12.10
2019-06-08T23:21:33.787Z,12.10
2019-06-08T23:24:02.838Z,12.10
2019-06-08T23:26:32.035Z,12.20
2019-06-08T23:29:00.335Z,12.10
2019-06-08T23:31:29.159Z,12.10
2019-06-08T23:34:00.354Z,12.20
2019-06-08T23:36:47.080Z,12.30
2019-06-08T23:38:59.054Z,12.30
2019-06-08T23:41:27.434Z,12.30
2019-06-08T23:43:57.379Z,12.30
2019-06-08T23:46:27.420Z,12.20
2019-06-08T23:48:58.967Z,12.20
2019-06-08T23:51:27.537Z,12.20
2019-06-08T23:53:58.319Z,12.20
2019-06-08T23:56:27.773Z,12.20
2019-06-08T23:58:56.209Z,12.10
